createdAt,value
2022-12-03T00:02:58.042Z,2.6
2022-12-03T00:05:01.067Z,2.7
2022-12-03T00:07:03.909Z,2.7
2022-12-03T00:09:10.130Z,2.6
2022-12-03T00:11:13.119Z,2.7
2022-12-03T00:15:34.313Z,2.7
2022-12-03T00:17:37.237Z,2.7
2022-12-03T00:21:46.457Z,2.6
2022-12-03T00:23:49.445Z,2.6
2022-12-03T00:25:52.453Z,2.6
2022-12-03T00:27:55.469Z,2.6
2022-12-03T00:29:58.460Z,2.6
2022-12-03T00:32:01.471Z,2.7
2022-12-03T00:34:04.472Z,2.5
2022-12-03T00:36:10.708Z,2.6
2022-12-03T00:38:13.659Z,2.7
2022-12-03T00:40:16.675Z,2.7
2022-12-03T00:42:19.678Z,2.7
2022-12-03T00:44:22.676Z,2.6
2022-12-03T00:46:25.676Z,2.7
2022-12-03T00:50:34.856Z,2.6
2022-12-03T00:52:37.881Z,2.6
2022-12-03T00:54:40.879Z,2.6
2022-12-03T00:56:43.910Z,2.7
2022-12-03T00:58:46.853Z,2.6
2022-12-03T01:00:49.846Z,2.6
2022-12-03T01:02:52.857Z,2.6
2022-12-03T01:04:59.180Z,2.7
2022-12-03T01:07:02.080Z,2.7
2022-12-03T01:09:05.085Z,2.6
2022-12-03T01:10:08.167Z,2.7
2022-12-03T01:12:11.202Z,2.6
2022-12-03T01:14:14.192Z,2.6
2022-12-03T01:16:17.190Z,2.7
2022-12-03T01:18:23.378Z,2.7
2022-12-03T01:20:26.411Z,2.7
2022-12-03T01:22:29.554Z,2.7
2022-12-03T01:24:32.411Z,2.6
2022-12-03T01:26:35.395Z,2.7
2022-12-03T01:28:38.411Z,2.7
2022-12-03T01:30:41.424Z,2.6
2022-12-03T01:32:47.768Z,2.7
2022-12-03T01:34:51.166Z,2.7
2022-12-03T01:36:53.623Z,2.7
2022-12-03T01:38:56.640Z,2.7
2022-12-03T01:43:02.627Z,2.7
2022-12-03T01:45:05.635Z,2.7
2022-12-03T01:47:11.813Z,2.8
2022-12-03T01:49:14.824Z,2.8
2022-12-03T01:51:17.829Z,2.7
2022-12-03T01:53:20.831Z,2.8
2022-12-03T01:55:23.816Z,2.8
2022-12-03T01:57:26.826Z,2.8
2022-12-03T01:59:29.821Z,2.8
2022-12-03T02:01:36.098Z,2.7
2022-12-03T02:03:39.267Z,2.8
2022-12-03T02:05:42.014Z,2.8
2022-12-03T02:06:45.128Z,2.8
2022-12-03T02:08:48.165Z,2.8
2022-12-03T02:12:54.184Z,2.8
2022-12-03T02:15:00.365Z,2.8
2022-12-03T02:17:03.370Z,2.8
2022-12-03T02:23:12.385Z,2.8
2022-12-03T02:25:15.381Z,2.8
2022-12-03T02:27:18.396Z,2.8
2022-12-03T02:29:24.655Z,2.9
2022-12-03T02:31:27.733Z,2.8
2022-12-03T02:33:30.629Z,2.8
2022-12-03T02:35:33.610Z,2.7
2022-12-03T02:37:36.630Z,2.9
2022-12-03T02:39:39.636Z,2.8
2022-12-03T02:41:42.650Z,2.8
2022-12-03T02:43:49.525Z,2.8
2022-12-03T02:45:52.516Z,2.8
2022-12-03T02:54:04.556Z,2.8
2022-12-03T02:58:13.772Z,2.9
2022-12-03T03:00:16.786Z,2.9
2022-12-03T03:02:19.866Z,2.8
2022-12-03T03:03:22.890Z,3
2022-12-03T03:15:44.149Z,2.9
2022-12-03T03:17:47.140Z,2.9
2022-12-03T03:21:53.171Z,2.9
2022-12-03T03:23:56.169Z,2.9
2022-12-03T03:26:02.397Z,2.9
2022-12-03T03:28:05.389Z,2.9
2022-12-03T03:30:08.437Z,2.9
2022-12-03T03:32:11.498Z,2.8
2022-12-03T03:34:14.410Z,2.8
2022-12-03T03:36:17.406Z,2.8
2022-12-03T03:38:20.426Z,2.8
2022-12-03T03:40:26.646Z,2.8
2022-12-03T03:42:29.643Z,2.8
2022-12-03T03:44:32.647Z,2.7
2022-12-03T03:46:35.665Z,2.7
2022-12-03T03:48:38.669Z,2.8
2022-12-03T03:50:41.694Z,2.7
2022-12-03T03:52:44.696Z,2.7
2022-12-03T03:54:51.167Z,2.7
2022-12-03T03:56:53.921Z,2.8
2022-12-03T03:58:56.927Z,2.8
2022-12-03T04:01:21.171Z,2.7
2022-12-03T04:03:24.094Z,2.7
2022-12-03T04:05:27.103Z,2.7
2022-12-03T04:07:33.389Z,2.8
2022-12-03T04:09:36.370Z,2.7
2022-12-03T04:11:39.365Z,2.7
2022-12-03T04:13:42.362Z,2.6
2022-12-03T04:15:45.373Z,2.7
2022-12-03T04:17:48.374Z,2.6
2022-12-03T04:19:53.010Z,2.6
2022-12-03T04:21:59.177Z,2.6
2022-12-03T04:24:02.171Z,2.7
2022-12-03T04:26:05.186Z,2.6
2022-12-03T04:28:08.192Z,2.7
2022-12-03T04:30:11.211Z,2.6
2022-12-03T04:32:14.211Z,2.6
2022-12-03T04:34:17.211Z,2.6
2022-12-03T04:36:23.432Z,2.7
2022-12-03T04:38:26.432Z,2.7
2022-12-03T04:40:29.454Z,2.6
2022-12-03T04:42:32.453Z,2.7
2022-12-03T04:44:35.415Z,2.6
2022-12-03T04:46:38.428Z,2.7
2022-12-03T04:48:41.439Z,2.6
2022-12-03T04:50:47.691Z,2.6
2022-12-03T04:52:50.818Z,2.6
2022-12-03T04:54:53.842Z,2.6
2022-12-03T04:55:56.749Z,2.6
2022-12-03T04:57:59.726Z,2.6
2022-12-03T05:00:02.750Z,2.6
2022-12-03T05:02:05.850Z,2.6
2022-12-03T05:04:11.968Z,2.6
2022-12-03T05:06:14.944Z,2.7
2022-12-03T05:08:18.007Z,2.6
2022-12-03T05:10:20.940Z,2.6
2022-12-03T05:12:23.929Z,2.6
2022-12-03T05:14:26.917Z,2.6
2022-12-03T05:18:36.107Z,2.5
2022-12-03T05:20:39.111Z,2.6
2022-12-03T05:22:42.088Z,2.6
2022-12-03T05:33:00.271Z,2.6
2022-12-03T05:35:03.256Z,2.5
2022-12-03T05:37:06.238Z,2.5
2022-12-03T05:39:09.258Z,2.5
2022-12-03T05:41:12.249Z,2.5
2022-12-03T05:43:15.242Z,2.5
2022-12-03T05:45:18.217Z,2.5
2022-12-03T05:47:24.432Z,2.4
2022-12-03T05:49:27.451Z,2.5
2022-12-03T05:51:30.456Z,2.4
2022-12-03T05:52:33.543Z,2.5
2022-12-03T05:54:36.543Z,2.4
2022-12-03T05:56:39.536Z,2.4
2022-12-03T05:58:42.511Z,2.3
2022-12-03T06:00:48.749Z,2.3
2022-12-03T06:02:51.860Z,2.4
2022-12-03T06:04:55.068Z,2.3
2022-12-03T06:09:00.766Z,2.3
2022-12-03T06:11:03.762Z,2.3
2022-12-03T06:13:06.730Z,2.3
2022-12-03T06:15:12.940Z,2.4
2022-12-03T06:17:15.950Z,2.3
2022-12-03T06:21:21.951Z,2.3
2022-12-03T06:23:24.940Z,2.3
2022-12-03T06:25:27.906Z,2.2
2022-12-03T06:27:30.935Z,2.2
2022-12-03T06:29:37.133Z,2.2
2022-12-03T06:31:40.217Z,2.3
2022-12-03T06:33:43.103Z,2.2
2022-12-03T06:35:46.116Z,2.2
2022-12-03T06:37:49.130Z,2.2
2022-12-03T06:39:52.125Z,2.2
2022-12-03T06:41:55.109Z,2.2
2022-12-03T06:44:01.307Z,2.2
2022-12-03T06:46:04.330Z,2.1
2022-12-03T06:48:07.312Z,2.1
2022-12-03T06:49:10.420Z,2.2
2022-12-03T06:51:13.398Z,2.2
2022-12-03T06:53:16.398Z,2.1
2022-12-03T06:55:19.416Z,2.2
2022-12-03T06:57:25.630Z,2.2
2022-12-03T06:59:28.666Z,2.1
2022-12-03T07:01:31.711Z,2.1
2022-12-03T07:03:34.612Z,2.1
2022-12-03T07:05:37.652Z,2.1
2022-12-03T07:07:40.664Z,2.1
2022-12-03T07:09:43.615Z,2.1
2022-12-03T07:11:49.815Z,2.2
2022-12-03T07:13:52.787Z,2.2
2022-12-03T07:15:55.838Z,2.1
2022-12-03T07:17:58.798Z,2.1
2022-12-03T07:20:01.782Z,2.2
2022-12-03T07:22:04.772Z,2.2
2022-12-03T07:24:07.770Z,2.2
2022-12-03T07:26:13.994Z,2.1
2022-12-03T07:28:17.009Z,2.2
2022-12-03T07:30:19.981Z,2.1
2022-12-03T07:32:22.948Z,2.2
2022-12-03T07:34:25.951Z,2.2
2022-12-03T07:36:28.965Z,2.1
2022-12-03T07:40:38.137Z,2.1
2022-12-03T07:42:41.136Z,2
2022-12-03T07:44:44.120Z,2.1
2022-12-03T07:47:14.087Z,2.1
2022-12-03T07:49:17.093Z,2.2
2022-12-03T07:51:20.062Z,2
2022-12-03T07:57:32.236Z,2.1
2022-12-03T07:59:35.228Z,2
2022-12-03T08:01:38.263Z,2.1
2022-12-03T08:05:44.172Z,2.1
2022-12-03T08:09:53.352Z,2
2022-12-03T08:16:02.388Z,2
2022-12-03T08:18:05.294Z,2.1
2022-12-03T08:22:14.451Z,2
2022-12-03T08:24:17.438Z,2
2022-12-03T08:28:23.406Z,2
2022-12-03T08:34:32.331Z,2
2022-12-03T08:38:41.514Z,2
2022-12-03T08:40:44.488Z,1.9
2022-12-03T08:41:47.601Z,1.9
2022-12-03T08:45:53.627Z,1.8
2022-12-03T08:47:56.528Z,1.9
2022-12-03T08:50:02.729Z,1.8
2022-12-03T08:52:05.710Z,1.8
2022-12-03T08:54:08.677Z,1.9
2022-12-03T08:58:14.645Z,1.8
2022-12-03T09:00:17.605Z,1.9
2022-12-03T09:02:20.607Z,2
2022-12-03T09:04:26.899Z,1.9
2022-12-03T09:06:29.795Z,1.9
2022-12-03T09:08:32.768Z,1.9
2022-12-03T09:10:35.713Z,1.8
2022-12-03T09:12:38.704Z,1.9
2022-12-03T09:14:41.697Z,1.9
2022-12-03T09:16:44.727Z,1.9
2022-12-03T09:18:50.851Z,1.9
2022-12-03T09:20:53.850Z,1.9
2022-12-03T09:22:56.831Z,1.9
2022-12-03T09:27:02.798Z,1.9
2022-12-03T09:31:08.704Z,1.9
2022-12-03T09:38:24.002Z,1.8
2022-12-03T09:40:26.975Z,1.7
2022-12-03T09:42:29.936Z,1.8
2022-12-03T09:44:32.906Z,1.7
2022-12-03T09:46:39.106Z,1.7
2022-12-03T09:48:42.093Z,1.8
2022-12-03T09:50:45.067Z,1.8
2022-12-03T09:52:48.044Z,1.8
2022-12-03T09:54:51.012Z,1.8
2022-12-03T09:56:54.000Z,1.8
2022-12-03T09:58:56.952Z,1.8
2022-12-03T10:01:03.266Z,1.7
2022-12-03T10:03:06.137Z,1.8
2022-12-03T10:05:09.216Z,1.7
2022-12-03T10:07:12.099Z,1.8
2022-12-03T10:09:15.048Z,1.7
2022-12-03T10:11:18.013Z,1.7
2022-12-03T10:13:25.676Z,1.6
2022-12-03T10:15:28.767Z,1.7
2022-12-03T10:17:31.725Z,1.7
2022-12-03T10:19:34.697Z,1.7
2022-12-03T10:21:37.702Z,1.7
2022-12-03T10:23:40.686Z,1.7
2022-12-03T10:25:43.655Z,1.8
2022-12-03T10:27:46.638Z,1.7
2022-12-03T10:29:53.038Z,1.6
2022-12-03T10:31:55.797Z,1.6
2022-12-03T10:33:58.774Z,1.7
2022-12-03T10:39:07.783Z,1.7
2022-12-03T10:41:10.765Z,1.7
2022-12-03T10:43:16.949Z,1.7
2022-12-03T10:45:19.894Z,1.8
2022-12-03T10:47:23.054Z,1.7
2022-12-03T10:49:25.846Z,1.7
2022-12-03T10:51:28.805Z,1.7
2022-12-03T10:55:34.748Z,1.6
2022-12-03T11:01:46.949Z,1.6
2022-12-03T11:07:55.857Z,1.7
2022-12-03T11:09:58.721Z,1.7
2022-12-03T11:20:22.238Z,1.7
2022-12-03T11:26:28.894Z,1.6
2022-12-03T11:28:31.870Z,1.7
2022-12-03T11:30:34.836Z,1.7
2022-12-03T11:33:04.775Z,1.6
2022-12-03T11:35:07.758Z,1.6
2022-12-03T11:37:10.695Z,1.6
2022-12-03T11:39:16.891Z,1.6
2022-12-03T11:41:19.878Z,1.6
2022-12-03T11:43:22.865Z,1.6
2022-12-03T11:45:25.803Z,1.6
2022-12-03T11:47:28.777Z,1.6
2022-12-03T11:49:31.774Z,1.5
2022-12-03T11:51:34.727Z,1.5
2022-12-03T11:53:40.938Z,1.5
2022-12-03T11:55:43.857Z,1.6
2022-12-03T11:57:46.831Z,1.6
2022-12-03T11:59:49.819Z,1.6
2022-12-03T12:01:52.761Z,1.6
2022-12-03T12:03:55.843Z,1.6
2022-12-03T12:05:58.676Z,1.5
2022-12-03T12:10:07.824Z,1.5
2022-12-03T12:12:10.807Z,1.6
2022-12-03T12:14:13.772Z,1.5
2022-12-03T12:18:19.685Z,1.4
2022-12-03T12:20:22.654Z,1.4
2022-12-03T12:22:28.848Z,1.4
2022-12-03T12:24:31.772Z,1.4
2022-12-03T12:27:37.849Z,1.3
2022-12-03T12:29:40.807Z,1.3
2022-12-03T12:31:44.004Z,1.3
2022-12-03T12:33:46.733Z,1.3
2022-12-03T12:35:52.890Z,1.4
2022-12-03T12:37:59.536Z,1.3
2022-12-03T12:39:58.822Z,1.3
2022-12-03T12:42:01.820Z,1.3
2022-12-03T12:44:04.735Z,1.2
2022-12-03T12:46:38.666Z,1.3
2022-12-03T12:48:10.682Z,1.3
2022-12-03T12:50:16.853Z,1.4
2022-12-03T12:52:19.832Z,1.3
2022-12-03T12:56:25.700Z,1.2
2022-12-03T13:00:31.723Z,1.2
2022-12-03T13:02:34.656Z,1.2
2022-12-03T13:04:40.750Z,1.3
2022-12-03T13:08:46.664Z,1.2
2022-12-03T13:12:52.568Z,1.3
2022-12-03T13:14:55.514Z,1.4
2022-12-03T13:23:10.550Z,1.4
2022-12-03T13:24:13.648Z,1.4
2022-12-03T13:26:30.366Z,1.5
2022-12-03T13:28:19.586Z,1.5
2022-12-03T13:30:22.559Z,1.4
2022-12-03T13:32:28.715Z,1.4
2022-12-03T13:34:31.666Z,1.3
2022-12-03T13:36:34.650Z,1.4
2022-12-03T13:38:37.606Z,1.4
2022-12-03T13:40:40.561Z,1.4
2022-12-03T13:42:43.488Z,1.4
2022-12-03T13:44:46.451Z,1.4
2022-12-03T13:48:58.757Z,1.4
2022-12-03T13:50:58.541Z,1.4
2022-12-03T13:57:07.414Z,1.4
2022-12-03T13:59:10.402Z,1.5
2022-12-03T14:01:16.615Z,1.5
2022-12-03T14:03:19.499Z,1.5
2022-12-03T14:05:22.489Z,1.5
2022-12-03T14:07:25.484Z,1.5
2022-12-03T14:09:28.393Z,1.5
2022-12-03T14:11:31.338Z,1.4
2022-12-03T14:13:34.297Z,1.5
2022-12-03T14:15:40.475Z,1.3
2022-12-03T14:17:43.433Z,1.3
2022-12-03T14:19:46.582Z,1.4
2022-12-03T14:22:57.668Z,1.4
2022-12-03T14:24:55.395Z,1.2
2022-12-03T14:26:58.345Z,1.3
2022-12-03T14:31:07.478Z,1.2
2022-12-03T14:33:10.434Z,1.2
2022-12-03T14:35:13.421Z,1.3
2022-12-03T14:37:16.356Z,1.3
2022-12-03T14:39:19.333Z,1.3
2022-12-03T14:43:28.427Z,1.3
2022-12-03T14:45:31.490Z,1.2
2022-12-03T14:49:37.286Z,1.2
2022-12-03T14:55:46.153Z,1.1
2022-12-03T14:59:55.462Z,1
2022-12-03T15:01:58.374Z,1
2022-12-03T15:08:07.128Z,1.1
2022-12-03T15:10:10.014Z,1
2022-12-03T15:12:16.188Z,0.9
2022-12-03T15:14:19.132Z,0.9
2022-12-03T15:16:22.116Z,1
2022-12-03T15:18:52.027Z,1.1
2022-12-03T15:20:54.972Z,1
2022-12-03T15:22:57.932Z,1
2022-12-03T15:25:04.133Z,0.9
2022-12-03T15:27:07.034Z,0.9
2022-12-03T15:29:09.996Z,0.9
2022-12-03T15:33:15.858Z,0.9
2022-12-03T15:35:18.842Z,0.9
2022-12-03T15:39:27.926Z,0.9
2022-12-03T15:41:30.861Z,0.8
2022-12-03T15:45:36.656Z,0.8
2022-12-03T15:47:39.600Z,0.9
2022-12-03T15:49:42.562Z,0.9
2022-12-03T15:51:45.473Z,0.9
2022-12-03T15:55:54.578Z,0.9
2022-12-03T15:57:57.531Z,1
2022-12-03T16:08:17.137Z,0.9
2022-12-03T16:10:20.027Z,0.9
2022-12-03T16:12:22.974Z,0.8
2022-12-03T16:13:26.058Z,0.9
2022-12-03T16:15:29.019Z,0.9
2022-12-03T16:17:31.992Z,0.8
2022-12-03T16:19:34.941Z,0.8
2022-12-03T16:21:41.120Z,0.9
2022-12-03T16:23:44.067Z,0.9
2022-12-03T16:25:47.023Z,0.8
2022-12-03T16:27:50.004Z,0.8
2022-12-03T16:29:53.291Z,0.8
2022-12-03T16:31:55.931Z,0.7
2022-12-03T16:33:58.887Z,0.9
2022-12-03T16:36:05.144Z,0.9
2022-12-03T16:40:11.010Z,0.9
2022-12-03T16:48:22.884Z,0.9
2022-12-03T16:50:30.510Z,1
2022-12-03T16:52:31.997Z,0.9
2022-12-03T16:54:34.946Z,0.9
2022-12-03T16:56:37.919Z,0.9
2022-12-03T17:08:58.900Z,1
2022-12-03T17:10:01.979Z,1
2022-12-03T17:12:04.932Z,1
2022-12-03T17:14:07.893Z,1
2022-12-03T17:16:10.878Z,0.9
2022-12-03T17:18:17.041Z,0.9
2022-12-03T17:20:20.253Z,1
2022-12-03T17:22:23.216Z,1
2022-12-03T17:24:26.166Z,0.9
2022-12-03T17:26:29.163Z,0.9
2022-12-03T17:28:32.095Z,0.9
2022-12-03T17:30:35.072Z,0.8
2022-12-03T17:32:41.224Z,0.9
2022-12-03T17:34:44.197Z,0.9
2022-12-03T17:36:47.140Z,0.9
2022-12-03T17:38:50.119Z,1
2022-12-03T17:44:58.987Z,0.9
2022-12-03T17:49:08.091Z,0.9
2022-12-03T17:51:11.064Z,0.8
2022-12-03T17:53:14.005Z,0.8
2022-12-03T18:01:29.046Z,0.8
2022-12-03T18:03:32.072Z,0.8
2022-12-03T18:05:34.963Z,0.8
2022-12-03T18:06:38.049Z,0.8
2022-12-03T18:14:53.052Z,0.8
2022-12-03T18:19:03.256Z,0.8
2022-12-03T18:25:07.796Z,0.9
2022-12-03T18:27:10.768Z,0.8
2022-12-03T18:29:16.906Z,0.8
2022-12-03T18:31:19.894Z,0.9
2022-12-03T18:33:22.813Z,0.9
2022-12-03T18:35:25.755Z,0.8
2022-12-03T18:37:28.710Z,0.8
2022-12-03T18:39:31.633Z,0.8
2022-12-03T18:41:34.591Z,0.8
2022-12-03T18:43:40.763Z,0.8
2022-12-03T18:45:43.695Z,0.8
2022-12-03T18:49:49.595Z,0.8
2022-12-03T18:55:58.439Z,0.8
2022-12-03T18:58:04.587Z,0.7
2022-12-03T19:02:10.559Z,0.7
2022-12-03T19:04:40.499Z,0.8
2022-12-03T19:10:52.531Z,0.8
2022-12-03T19:14:58.417Z,0.8
2022-12-03T19:23:10.241Z,0.8
2022-12-03T19:25:16.378Z,0.8
2022-12-03T19:29:22.243Z,0.7
2022-12-03T19:33:28.532Z,0.8
2022-12-03T19:35:31.124Z,0.7
2022-12-03T19:37:34.009Z,0.8
2022-12-03T19:39:40.173Z,0.8
2022-12-03T19:41:43.129Z,0.8
2022-12-03T19:45:49.094Z,0.7
2022-12-03T19:47:51.965Z,0.7
2022-12-03T19:49:55.334Z,0.7
2022-12-03T19:51:57.844Z,0.7
2022-12-03T19:54:04.015Z,0.8
2022-12-03T19:56:06.925Z,0.7
2022-12-03T19:58:09.883Z,0.7
2022-12-03T19:59:12.956Z,0.7
2022-12-03T20:01:15.994Z,0.7
2022-12-03T20:03:18.862Z,0.6
2022-12-03T20:05:21.782Z,0.6
2022-12-03T20:07:28.053Z,0.7
2022-12-03T20:09:30.891Z,0.7
2022-12-03T20:11:33.866Z,0.7
2022-12-03T20:15:39.705Z,0.7
2022-12-03T20:17:42.649Z,0.6
2022-12-03T20:19:45.637Z,0.6
2022-12-03T20:21:51.784Z,0.6
2022-12-03T20:23:54.704Z,0.6
2022-12-03T20:25:57.652Z,0.7
2022-12-03T20:28:00.609Z,0.6
2022-12-03T20:30:03.528Z,0.5
2022-12-03T20:32:06.566Z,0.6
2022-12-03T20:34:09.439Z,0.6
2022-12-03T20:38:18.561Z,0.6
2022-12-03T20:40:21.494Z,0.6
2022-12-03T20:42:24.415Z,0.6
2022-12-03T20:44:27.371Z,0.6
2022-12-03T20:46:30.451Z,0.5
2022-12-03T20:48:33.240Z,0.6
2022-12-03T20:50:39.427Z,0.5
2022-12-03T20:52:52.895Z,0.6
2022-12-03T20:54:45.303Z,0.6
2022-12-03T20:55:48.338Z,0.5
2022-12-03T20:57:51.287Z,0.6
2022-12-03T20:59:54.502Z,0.5
2022-12-03T21:01:57.366Z,0.6
2022-12-03T21:04:03.347Z,0.6
2022-12-03T21:06:06.274Z,0.6
2022-12-03T21:08:09.314Z,0.6
2022-12-03T21:10:12.166Z,0.5
2022-12-03T21:12:15.244Z,0.5
2022-12-03T21:14:18.004Z,0.5
2022-12-03T21:16:34.247Z,0.6
2022-12-03T21:18:27.128Z,0.5
2022-12-03T21:20:30.073Z,0.5
2022-12-03T21:22:33.006Z,0.5
2022-12-03T21:24:35.932Z,0.4
2022-12-03T21:26:38.872Z,0.4
2022-12-03T21:28:41.800Z,0.4
2022-12-03T21:38:59.706Z,0.5
2022-12-03T21:43:05.542Z,0.4
2022-12-03T21:45:08.484Z,0.5
2022-12-03T21:47:14.807Z,0.5
2022-12-03T21:52:23.549Z,0.4
2022-12-03T21:54:26.480Z,0.4
2022-12-03T21:56:29.413Z,0.5
2022-12-03T21:58:32.345Z,0.6
2022-12-03T22:00:38.495Z,0.6
2022-12-03T22:02:43.146Z,0.5
2022-12-03T22:04:45.934Z,0.6
2022-12-03T22:06:48.876Z,0.6
2022-12-03T22:08:51.807Z,0.5
2022-12-03T22:10:54.839Z,0.5
2022-12-03T22:12:57.684Z,0.5
2022-12-03T22:15:03.867Z,0.6
2022-12-03T22:17:06.802Z,0.6
2022-12-03T22:19:09.706Z,0.6
2022-12-03T22:21:12.673Z,0.6
2022-12-03T22:23:15.591Z,0.6
2022-12-03T22:25:18.550Z,0.6
2022-12-03T22:27:21.470Z,0.6
2022-12-03T22:29:27.632Z,0.5
2022-12-03T22:31:30.685Z,0.6
2022-12-03T22:33:33.516Z,0.6
2022-12-03T22:35:36.451Z,0.6
2022-12-03T22:37:39.403Z,0.7
2022-12-03T22:39:42.347Z,0.6
2022-12-03T22:41:45.272Z,0.6
2022-12-03T22:50:21.607Z,0.5
2022-12-03T22:52:24.544Z,0.5
2022-12-03T22:54:27.490Z,0.6
2022-12-03T22:56:33.666Z,0.6
2022-12-03T23:00:39.535Z,0.7
2022-12-03T23:02:42.589Z,0.7
2022-12-03T23:04:45.445Z,0.6
2022-12-03T23:10:57.468Z,0.6
2022-12-03T23:15:03.384Z,0.7
2022-12-03T23:17:06.321Z,0.7
2022-12-03T23:23:15.144Z,0.7
2022-12-03T23:27:24.277Z,0.7
2022-12-03T23:29:27.226Z,0.8
2022-12-03T23:31:30.272Z,0.7
2022-12-03T23:33:38.241Z,0.7
2022-12-03T23:35:36.078Z,0.7
2022-12-03T23:37:39.028Z,0.7
2022-12-03T23:39:45.174Z,0.8
2022-12-03T23:41:48.125Z,0.7
2022-12-03T23:43:51.057Z,0.6
2022-12-03T23:44:54.172Z,0.6
2022-12-03T23:46:57.223Z,0.7
2022-12-03T23:49:00.081Z,0.7
2022-12-03T23:51:03.018Z,0.7
2022-12-03T23:53:09.179Z,0.7
2022-12-03T23:55:12.174Z,0.8
2022-12-03T23:57:15.098Z,0.7
2022-12-03T23:59:18.047Z,0.8
